sensor_id;sensor_type;location;lat;lon;timestamp;P1;durP1;ratioP1;P2;durP2;ratioP2
6193;SDS011;3130;41.564;23.280;2024-01-11T00:01:08;13.70;;;8.80;;
6193;SDS011;3130;41.564;23.280;2024-01-11T00:03:37;16.10;;;8.47;;
6193;SDS011;3130;41.564;23.280;2024-01-11T00:06:04;13.87;;;7.40;;
6193;SDS011;3130;41.564;23.280;2024-01-11T00:08:31;15.67;;;8.53;;
6193;SDS011;3130;41.564;23.280;2024-01-11T00:10:59;14.10;;;8.37;;
6193;SDS011;3130;41.564;23.280;2024-01-11T00:13:26;18.37;;;8.37;;
6193;SDS011;3130;41.564;23.280;2024-01-11T00:15:53;17.43;;;8.93;;
6193;SDS011;3130;41.564;23.280;2024-01-11T00:18:20;13.40;;;8.60;;
6193;SDS011;3130;41.564;23.280;2024-01-11T00:20:49;17.20;;;9.00;;
6193;SDS011;3130;41.564;23.280;2024-01-11T00:23:17;15.07;;;9.00;;
6193;SDS011;3130;41.564;23.280;2024-01-11T00:25:44;14.43;;;9.43;;
6193;SDS011;3130;41.564;23.280;2024-01-11T00:28:11;13.90;;;8.77;;
6193;SDS011;3130;41.564;23.280;2024-01-11T00:30:38;16.67;;;8.77;;
6193;SDS011;3130;41.564;23.280;2024-01-11T00:33:06;13.43;;;8.07;;
6193;SDS011;3130;41.564;23.280;2024-01-11T00:35:34;11.60;;;7.70;;
6193;SDS011;3130;41.564;23.280;2024-01-11T00:38:02;13.50;;;8.07;;
6193;SDS011;3130;41.564;23.280;2024-01-11T00:40:30;10.77;;;7.27;;
6193;SDS011;3130;41.564;23.280;2024-01-11T00:42:57;10.13;;;8.60;;
6193;SDS011;3130;41.564;23.280;2024-01-11T00:45:24;13.10;;;9.13;;
6193;SDS011;3130;41.564;23.280;2024-01-11T00:47:52;13.23;;;8.10;;
6193;SDS011;3130;41.564;23.280;2024-01-11T00:50:19;13.73;;;8.13;;
6193;SDS011;3130;41.564;23.280;2024-01-11T00:52:46;11.20;;;8.17;;
6193;SDS011;3130;41.564;23.280;2024-01-11T00:55:15;13.47;;;7.90;;
6193;SDS011;3130;41.564;23.280;2024-01-11T00:57:42;12.73;;;8.00;;
6193;SDS011;3130;41.564;23.280;2024-01-11T01:00:10;14.97;;;8.37;;
6193;SDS011;3130;41.564;23.280;2024-01-11T01:02:40;12.43;;;8.83;;
6193;SDS011;3130;41.564;23.280;2024-01-11T01:05:07;12.00;;;7.60;;
6193;SDS011;3130;41.564;23.280;2024-01-11T01:07:35;14.37;;;8.73;;
6193;SDS011;3130;41.564;23.280;2024-01-11T01:10:02;11.70;;;7.77;;
6193;SDS011;3130;41.564;23.280;2024-01-11T01:12:31;12.37;;;8.20;;
6193;SDS011;3130;41.564;23.280;2024-01-11T01:14:58;17.60;;;9.17;;
6193;SDS011;3130;41.564;23.280;2024-01-11T01:17:26;11.63;;;7.57;;
6193;SDS011;3130;41.564;23.280;2024-01-11T01:19:54;10.40;;;8.37;;
6193;SDS011;3130;41.564;23.280;2024-01-11T01:22:22;12.77;;;8.10;;
6193;SDS011;3130;41.564;23.280;2024-01-11T01:24:50;13.30;;;8.20;;
6193;SDS011;3130;41.564;23.280;2024-01-11T01:27:17;12.67;;;7.97;;
6193;SDS011;3130;41.564;23.280;2024-01-11T01:29:46;11.77;;;7.07;;
6193;SDS011;3130;41.564;23.280;2024-01-11T01:32:13;15.13;;;8.10;;
6193;SDS011;3130;41.564;23.280;2024-01-11T01:34:40;14.53;;;8.33;;
6193;SDS011;3130;41.564;23.280;2024-01-11T01:37:07;16.07;;;7.90;;
6193;SDS011;3130;41.564;23.280;2024-01-11T01:39:37;12.37;;;7.93;;
6193;SDS011;3130;41.564;23.280;2024-01-11T01:42:04;10.90;;;7.00;;
6193;SDS011;3130;41.564;23.280;2024-01-11T01:44:31;14.57;;;8.03;;
6193;SDS011;3130;41.564;23.280;2024-01-11T01:47:00;19.63;;;8.60;;
6193;SDS011;3130;41.564;23.280;2024-01-11T01:49:29;11.93;;;7.97;;
6193;SDS011;3130;41.564;23.280;2024-01-11T01:51:56;13.37;;;8.57;;
6193;SDS011;3130;41.564;23.280;2024-01-11T01:54:23;10.97;;;7.53;;
6193;SDS011;3130;41.564;23.280;2024-01-11T01:56:51;14.60;;;7.83;;
6193;SDS011;3130;41.564;23.280;2024-01-11T01:59:20;13.03;;;7.93;;
6193;SDS011;3130;41.564;23.280;2024-01-11T02:01:48;12.70;;;8.07;;
6193;SDS011;3130;41.564;23.280;2024-01-11T02:04:17;15.57;;;7.87;;
6193;SDS011;3130;41.564;23.280;2024-01-11T02:06:44;15.77;;;8.20;;
6193;SDS011;3130;41.564;23.280;2024-01-11T02:09:13;13.13;;;8.00;;
6193;SDS011;3130;41.564;23.280;2024-01-11T02:11:42;12.83;;;8.00;;
6193;SDS011;3130;41.564;23.280;2024-01-11T02:14:11;11.53;;;7.43;;
6193;SDS011;3130;41.564;23.280;2024-01-11T02:16:38;10.77;;;7.50;;
6193;SDS011;3130;41.564;23.280;2024-01-11T02:19:05;11.50;;;7.20;;
6193;SDS011;3130;41.564;23.280;2024-01-11T02:21:40;14.63;;;8.03;;
6193;SDS011;3130;41.564;23.280;2024-01-11T02:24:11;14.27;;;8.07;;
6193;SDS011;3130;41.564;23.280;2024-01-11T02:26:44;15.27;;;7.87;;
6193;SDS011;3130;41.564;23.280;2024-01-11T02:29:25;13.23;;;8.37;;
6193;SDS011;3130;41.564;23.280;2024-01-11T02:31:52;13.70;;;8.37;;
6193;SDS011;3130;41.564;23.280;2024-01-11T02:34:20;10.17;;;6.57;;
6193;SDS011;3130;41.564;23.280;2024-01-11T02:36:49;9.63;;;7.30;;
6193;SDS011;3130;41.564;23.280;2024-01-11T02:39:18;13.07;;;7.73;;
6193;SDS011;3130;41.564;23.280;2024-01-11T02:41:47;11.27;;;8.40;;
6193;SDS011;3130;41.564;23.280;2024-01-11T02:44:17;11.27;;;6.60;;
6193;SDS011;3130;41.564;23.280;2024-01-11T02:46:44;13.53;;;8.90;;
6193;SDS011;3130;41.564;23.280;2024-01-11T02:49:11;12.27;;;7.47;;
6193;SDS011;3130;41.564;23.280;2024-01-11T02:51:39;12.23;;;8.00;;
6193;SDS011;3130;41.564;23.280;2024-01-11T02:54:06;15.20;;;8.60;;
6193;SDS011;3130;41.564;23.280;2024-01-11T02:56:35;11.53;;;8.30;;
6193;SDS011;3130;41.564;23.280;2024-01-11T02:59:02;13.13;;;8.57;;
6193;SDS011;3130;41.564;23.280;2024-01-11T03:01:29;11.43;;;7.53;;
6193;SDS011;3130;41.564;23.280;2024-01-11T03:03:57;12.80;;;7.37;;
6193;SDS011;3130;41.564;23.280;2024-01-11T03:06:25;13.43;;;7.33;;
6193;SDS011;3130;41.564;23.280;2024-01-11T03:08:52;11.63;;;7.87;;
6193;SDS011;3130;41.564;23.280;2024-01-11T03:11:19;11.67;;;7.30;;
6193;SDS011;3130;41.564;23.280;2024-01-11T03:13:48;11.77;;;7.70;;
6193;SDS011;3130;41.564;23.280;2024-01-11T03:16:15;9.50;;;6.70;;
6193;SDS011;3130;41.564;23.280;2024-01-11T03:18:42;12.53;;;7.20;;
6193;SDS011;3130;41.564;23.280;2024-01-11T03:21:09;14.47;;;7.83;;
6193;SDS011;3130;41.564;23.280;2024-01-11T03:23:38;14.03;;;8.07;;
6193;SDS011;3130;41.564;23.280;2024-01-11T03:26:11;11.13;;;7.63;;
6193;SDS011;3130;41.564;23.280;2024-01-11T03:28:39;11.33;;;8.43;;
6193;SDS011;3130;41.564;23.280;2024-01-11T03:31:09;10.50;;;6.77;;
6193;SDS011;3130;41.564;23.280;2024-01-11T03:33:36;12.87;;;8.60;;
6193;SDS011;3130;41.564;23.280;2024-01-11T03:36:07;14.33;;;7.53;;
6193;SDS011;3130;41.564;23.280;2024-01-11T03:38:35;10.63;;;7.10;;
6193;SDS011;3130;41.564;23.280;2024-01-11T03:41:06;12.27;;;8.13;;
6193;SDS011;3130;41.564;23.280;2024-01-11T03:43:34;14.83;;;8.00;;
6193;SDS011;3130;41.564;23.280;2024-01-11T03:46:02;21.17;;;9.57;;
6193;SDS011;3130;41.564;23.280;2024-01-11T03:48:31;15.37;;;8.53;;
6193;SDS011;3130;41.564;23.280;2024-01-11T03:50:58;19.53;;;8.60;;
6193;SDS011;3130;41.564;23.280;2024-01-11T03:53:25;16.70;;;10.27;;
6193;SDS011;3130;41.564;23.280;2024-01-11T03:55:53;25.40;;;12.77;;
6193;SDS011;3130;41.564;23.280;2024-01-11T03:58:20;25.80;;;12.07;;
6193;SDS011;3130;41.564;23.280;2024-01-11T04:00:48;23.63;;;11.13;;
6193;SDS011;3130;41.564;23.280;2024-01-11T04:03:15;17.73;;;10.83;;
6193;SDS011;3130;41.564;23.280;2024-01-11T04:05:44;16.87;;;10.73;;
6193;SDS011;3130;41.564;23.280;2024-01-11T04:08:11;16.03;;;10.57;;
6193;SDS011;3130;41.564;23.280;2024-01-11T04:10:38;16.87;;;10.57;;
6193;SDS011;3130;41.564;23.280;2024-01-11T04:13:06;17.37;;;9.57;;
6193;SDS011;3130;41.564;23.280;2024-01-11T04:15:34;14.63;;;9.53;;
6193;SDS011;3130;41.564;23.280;2024-01-11T04:18:01;13.40;;;8.60;;
6193;SDS011;3130;41.564;23.280;2024-01-11T04:20:28;16.47;;;10.07;;
6193;SDS011;3130;41.564;23.280;2024-01-11T04:22:57;20.30;;;9.83;;
6193;SDS011;3130;41.564;23.280;2024-01-11T04:25:24;13.43;;;9.47;;
6193;SDS011;3130;41.564;23.280;2024-01-11T04:27:51;22.13;;;11.90;;
6193;SDS011;3130;41.564;23.280;2024-01-11T04:30:18;16.00;;;11.97;;
6193;SDS011;3130;41.564;23.280;2024-01-11T04:32:46;17.33;;;12.00;;
6193;SDS011;3130;41.564;23.280;2024-01-11T04:35:13;25.83;;;10.87;;
6193;SDS011;3130;41.564;23.280;2024-01-11T04:37:40;23.23;;;11.20;;
6193;SDS011;3130;41.564;23.280;2024-01-11T04:40:10;22.40;;;12.87;;
6193;SDS011;3130;41.564;23.280;2024-01-11T04:42:37;19.47;;;13.20;;
6193;SDS011;3130;41.564;23.280;2024-01-11T04:45:04;17.50;;;10.33;;
6193;SDS011;3130;41.564;23.280;2024-01-11T04:47:32;16.50;;;8.83;;
6193;SDS011;3130;41.564;23.280;2024-01-11T04:49:59;14.57;;;7.73;;
6193;SDS011;3130;41.564;23.280;2024-01-11T04:52:26;13.43;;;8.77;;
6193;SDS011;3130;41.564;23.280;2024-01-11T04:54:53;17.33;;;9.53;;
6193;SDS011;3130;41.564;23.280;2024-01-11T04:57:22;16.13;;;9.07;;
6193;SDS011;3130;41.564;23.280;2024-01-11T04:59:50;12.67;;;8.40;;
6193;SDS011;3130;41.564;23.280;2024-01-11T05:02:20;12.13;;;8.10;;
6193;SDS011;3130;41.564;23.280;2024-01-11T05:04:47;13.30;;;7.93;;
6193;SDS011;3130;41.564;23.280;2024-01-11T05:07:15;12.60;;;8.37;;
6193;SDS011;3130;41.564;23.280;2024-01-11T05:09:43;13.07;;;9.30;;
6193;SDS011;3130;41.564;23.280;2024-01-11T05:12:10;19.07;;;10.53;;
6193;SDS011;3130;41.564;23.280;2024-01-11T05:14:38;18.00;;;10.37;;
6193;SDS011;3130;41.564;23.280;2024-01-11T05:17:05;15.47;;;10.20;;
6193;SDS011;3130;41.564;23.280;2024-01-11T05:19:33;33.93;;;16.17;;
6193;SDS011;3130;41.564;23.280;2024-01-11T05:22:00;32.63;;;16.43;;
6193;SDS011;3130;41.564;23.280;2024-01-11T05:24:27;29.17;;;16.33;;
6193;SDS011;3130;41.564;23.280;2024-01-11T05:26:55;31.90;;;18.30;;
6193;SDS011;3130;41.564;23.280;2024-01-11T05:29:23;29.87;;;16.07;;
6193;SDS011;3130;41.564;23.280;2024-01-11T05:31:51;30.63;;;17.83;;
6193;SDS011;3130;41.564;23.280;2024-01-11T05:34:19;30.23;;;15.60;;
6193;SDS011;3130;41.564;23.280;2024-01-11T05:36:46;30.03;;;16.80;;
6193;SDS011;3130;41.564;23.280;2024-01-11T05:39:13;20.60;;;14.30;;
6193;SDS011;3130;41.564;23.280;2024-01-11T05:41:43;24.90;;;14.33;;
6193;SDS011;3130;41.564;23.280;2024-01-11T05:44:10;19.63;;;12.53;;
6193;SDS011;3130;41.564;23.280;2024-01-11T05:46:37;15.20;;;10.47;;
6193;SDS011;3130;41.564;23.280;2024-01-11T05:49:06;21.10;;;10.50;;
6193;SDS011;3130;41.564;23.280;2024-01-11T05:51:34;18.03;;;10.07;;
6193;SDS011;3130;41.564;23.280;2024-01-11T05:54:01;18.27;;;9.30;;
6193;SDS011;3130;41.564;23.280;2024-01-11T05:56:28;15.63;;;9.17;;
6193;SDS011;3130;41.564;23.280;2024-01-11T05:58:55;18.20;;;10.57;;
6193;SDS011;3130;41.564;23.280;2024-01-11T06:01:24;15.27;;;9.70;;
6193;SDS011;3130;41.564;23.280;2024-01-11T06:03:51;14.20;;;10.03;;
6193;SDS011;3130;41.564;23.280;2024-01-11T06:06:20;17.67;;;10.57;;
6193;SDS011;3130;41.564;23.280;2024-01-11T06:08:47;16.07;;;9.30;;
6193;SDS011;3130;41.564;23.280;2024-01-11T06:11:15;16.30;;;10.20;;
6193;SDS011;3130;41.564;23.280;2024-01-11T06:13:43;16.23;;;10.73;;
6193;SDS011;3130;41.564;23.280;2024-01-11T06:16:11;17.10;;;10.60;;
6193;SDS011;3130;41.564;23.280;2024-01-11T06:18:38;20.57;;;10.10;;
6193;SDS011;3130;41.564;23.280;2024-01-11T06:21:05;14.60;;;10.07;;
6193;SDS011;3130;41.564;23.280;2024-01-11T06:23:34;13.13;;;9.10;;
6193;SDS011;3130;41.564;23.280;2024-01-11T06:26:01;11.50;;;8.73;;
6193;SDS011;3130;41.564;23.280;2024-01-11T06:28:29;12.70;;;8.77;;
6193;SDS011;3130;41.564;23.280;2024-01-11T06:30:56;16.37;;;9.90;;
6193;SDS011;3130;41.564;23.280;2024-01-11T06:33:24;18.43;;;9.90;;
6193;SDS011;3130;41.564;23.280;2024-01-11T06:35:51;12.20;;;9.00;;
6193;SDS011;3130;41.564;23.280;2024-01-11T06:38:18;14.83;;;9.27;;
6193;SDS011;3130;41.564;23.280;2024-01-11T06:40:47;12.43;;;8.07;;
6193;SDS011;3130;41.564;23.280;2024-01-11T06:43:14;15.70;;;9.70;;
6193;SDS011;3130;41.564;23.280;2024-01-11T06:45:42;15.63;;;9.13;;
6193;SDS011;3130;41.564;23.280;2024-01-11T06:48:09;17.53;;;11.33;;
6193;SDS011;3130;41.564;23.280;2024-01-11T06:50:36;51.77;;;32.07;;
6193;SDS011;3130;41.564;23.280;2024-01-11T06:53:04;56.10;;;32.70;;
6193;SDS011;3130;41.564;23.280;2024-01-11T06:55:31;72.57;;;41.27;;
6193;SDS011;3130;41.564;23.280;2024-01-11T06:58:00;63.97;;;35.67;;
6193;SDS011;3130;41.564;23.280;2024-01-11T07:00:27;61.53;;;35.03;;
6193;SDS011;3130;41.564;23.280;2024-01-11T07:02:54;59.13;;;32.40;;
6193;SDS011;3130;41.564;23.280;2024-01-11T07:05:21;59.07;;;32.60;;
6193;SDS011;3130;41.564;23.280;2024-01-11T07:07:49;58.00;;;35.20;;
6193;SDS011;3130;41.564;23.280;2024-01-11T07:10:16;56.17;;;33.47;;
6193;SDS011;3130;41.564;23.280;2024-01-11T07:12:44;56.77;;;34.67;;
6193;SDS011;3130;41.564;23.280;2024-01-11T07:15:14;55.13;;;28.73;;
6193;SDS011;3130;41.564;23.280;2024-01-11T07:17:42;34.13;;;19.90;;
6193;SDS011;3130;41.564;23.280;2024-01-11T07:20:10;26.30;;;15.67;;
6193;SDS011;3130;41.564;23.280;2024-01-11T07:22:38;30.97;;;17.07;;
6193;SDS011;3130;41.564;23.280;2024-01-11T07:25:05;24.90;;;14.53;;
6193;SDS011;3130;41.564;23.280;2024-01-11T07:27:33;21.73;;;13.53;;
6193;SDS011;3130;41.564;23.280;2024-01-11T07:30:01;19.00;;;11.27;;
6193;SDS011;3130;41.564;23.280;2024-01-11T07:32:30;17.37;;;11.37;;
6193;SDS011;3130;41.564;23.280;2024-01-11T07:34:57;24.33;;;12.53;;
6193;SDS011;3130;41.564;23.280;2024-01-11T07:37:24;16.87;;;10.60;;
6193;SDS011;3130;41.564;23.280;2024-01-11T07:39:53;17.40;;;11.17;;
6193;SDS011;3130;41.564;23.280;2024-01-11T07:42:20;23.00;;;11.87;;
6193;SDS011;3130;41.564;23.280;2024-01-11T07:44:47;20.87;;;11.53;;
6193;SDS011;3130;41.564;23.280;2024-01-11T07:47:15;13.87;;;10.30;;
6193;SDS011;3130;41.564;23.280;2024-01-11T07:49:44;27.40;;;18.57;;
6193;SDS011;3130;41.564;23.280;2024-01-11T07:52:11;13.63;;;9.40;;
6193;SDS011;3130;41.564;23.280;2024-01-11T07:54:39;14.87;;;10.30;;
6193;SDS011;3130;41.564;23.280;2024-01-11T07:57:07;18.07;;;12.53;;
6193;SDS011;3130;41.564;23.280;2024-01-11T07:59:34;16.57;;;11.67;;
6193;SDS011;3130;41.564;23.280;2024-01-11T08:02:01;16.67;;;10.77;;
6193;SDS011;3130;41.564;23.280;2024-01-11T08:04:29;16.90;;;11.33;;
6193;SDS011;3130;41.564;23.280;2024-01-11T08:06:57;16.13;;;11.73;;
6193;SDS011;3130;41.564;23.280;2024-01-11T08:09:25;16.60;;;11.97;;
6193;SDS011;3130;41.564;23.280;2024-01-11T08:11:53;14.03;;;10.97;;
6193;SDS011;3130;41.564;23.280;2024-01-11T08:14:20;15.77;;;9.83;;
6193;SDS011;3130;41.564;23.280;2024-01-11T08:16:48;17.23;;;10.27;;
6193;SDS011;3130;41.564;23.280;2024-01-11T08:19:15;15.40;;;10.40;;
6193;SDS011;3130;41.564;23.280;2024-01-11T08:21:42;20.47;;;12.73;;
6193;SDS011;3130;41.564;23.280;2024-01-11T08:24:11;19.77;;;14.17;;
6193;SDS011;3130;41.564;23.280;2024-01-11T08:26:38;17.57;;;12.47;;
6193;SDS011;3130;41.564;23.280;2024-01-11T08:29:05;24.17;;;14.77;;
6193;SDS011;3130;41.564;23.280;2024-01-11T08:31:34;16.73;;;13.20;;
6193;SDS011;3130;41.564;23.280;2024-01-11T08:34:01;19.67;;;12.47;;
6193;SDS011;3130;41.564;23.280;2024-01-11T08:36:32;17.60;;;11.87;;
6193;SDS011;3130;41.564;23.280;2024-01-11T08:39:01;19.27;;;11.90;;
6193;SDS011;3130;41.564;23.280;2024-01-11T08:41:32;23.07;;;14.10;;
6193;SDS011;3130;41.564;23.280;2024-01-11T08:44:00;21.10;;;14.83;;
6193;SDS011;3130;41.564;23.280;2024-01-11T08:46:28;16.87;;;13.27;;
6193;SDS011;3130;41.564;23.280;2024-01-11T08:48:56;25.03;;;17.20;;
6193;SDS011;3130;41.564;23.280;2024-01-11T08:51:23;20.97;;;13.93;;
6193;SDS011;3130;41.564;23.280;2024-01-11T08:53:50;28.73;;;17.43;;
6193;SDS011;3130;41.564;23.280;2024-01-11T08:56:18;28.60;;;22.10;;
6193;SDS011;3130;41.564;23.280;2024-01-11T08:58:47;28.20;;;18.17;;
6193;SDS011;3130;41.564;23.280;2024-01-11T09:01:14;27.70;;;18.13;;
6193;SDS011;3130;41.564;23.280;2024-01-11T09:03:43;21.47;;;13.53;;
6193;SDS011;3130;41.564;23.280;2024-01-11T09:06:13;31.57;;;18.63;;
6193;SDS011;3130;41.564;23.280;2024-01-11T09:08:40;27.73;;;17.67;;
6193;SDS011;3130;41.564;23.280;2024-01-11T09:11:07;29.53;;;18.77;;
6193;SDS011;3130;41.564;23.280;2024-01-11T09:13:36;31.77;;;18.73;;
6193;SDS011;3130;41.564;23.280;2024-01-11T09:16:05;36.50;;;19.27;;
6193;SDS011;3130;41.564;23.280;2024-01-11T09:18:34;32.53;;;20.87;;
6193;SDS011;3130;41.564;23.280;2024-01-11T09:21:01;32.30;;;20.27;;
6193;SDS011;3130;41.564;23.280;2024-01-11T09:23:30;29.77;;;19.03;;
6193;SDS011;3130;41.564;23.280;2024-01-11T09:25:59;34.53;;;21.43;;
6193;SDS011;3130;41.564;23.280;2024-01-11T09:28:26;37.03;;;24.77;;
6193;SDS011;3130;41.564;23.280;2024-01-11T09:30:54;46.33;;;28.47;;
6193;SDS011;3130;41.564;23.280;2024-01-11T09:33:26;53.87;;;33.77;;
6193;SDS011;3130;41.564;23.280;2024-01-11T09:35:54;57.67;;;36.40;;
6193;SDS011;3130;41.564;23.280;2024-01-11T09:38:22;54.27;;;34.63;;
6193;SDS011;3130;41.564;23.280;2024-01-11T09:40:50;52.50;;;36.13;;
6193;SDS011;3130;41.564;23.280;2024-01-11T09:43:26;58.80;;;36.23;;
6193;SDS011;3130;41.564;23.280;2024-01-11T09:45:54;60.43;;;35.10;;
6193;SDS011;3130;41.564;23.280;2024-01-11T09:48:22;49.53;;;29.90;;
6193;SDS011;3130;41.564;23.280;2024-01-11T09:50:52;40.47;;;23.23;;
6193;SDS011;3130;41.564;23.280;2024-01-11T09:53:22;36.87;;;22.33;;
6193;SDS011;3130;41.564;23.280;2024-01-11T09:55:51;33.33;;;20.83;;
6193;SDS011;3130;41.564;23.280;2024-01-11T09:58:20;31.27;;;17.47;;
6193;SDS011;3130;41.564;23.280;2024-01-11T10:00:49;29.23;;;19.07;;
6193;SDS011;3130;41.564;23.280;2024-01-11T10:03:20;25.33;;;15.93;;
6193;SDS011;3130;41.564;23.280;2024-01-11T10:05:49;24.77;;;16.50;;
6193;SDS011;3130;41.564;23.280;2024-01-11T10:08:19;25.40;;;15.70;;
6193;SDS011;3130;41.564;23.280;2024-01-11T10:10:48;29.53;;;17.97;;
6193;SDS011;3130;41.564;23.280;2024-01-11T10:13:16;20.83;;;14.47;;
6193;SDS011;3130;41.564;23.280;2024-01-11T10:15:43;23.53;;;15.77;;
6193;SDS011;3130;41.564;23.280;2024-01-11T10:18:10;24.20;;;15.07;;
6193;SDS011;3130;41.564;23.280;2024-01-11T10:20:38;28.10;;;15.37;;
6193;SDS011;3130;41.564;23.280;2024-01-11T10:23:05;26.10;;;17.13;;
6193;SDS011;3130;41.564;23.280;2024-01-11T10:25:35;23.67;;;15.43;;
6193;SDS011;3130;41.564;23.280;2024-01-11T10:28:02;22.80;;;14.53;;
6193;SDS011;3130;41.564;23.280;2024-01-11T10:30:31;19.30;;;15.57;;
6193;SDS011;3130;41.564;23.280;2024-01-11T10:32:59;25.03;;;15.17;;
6193;SDS011;3130;41.564;23.280;2024-01-11T10:35:26;23.83;;;13.90;;
6193;SDS011;3130;41.564;23.280;2024-01-11T10:37:53;26.43;;;15.90;;
6193;SDS011;3130;41.564;23.280;2024-01-11T10:40:22;21.23;;;14.40;;
6193;SDS011;3130;41.564;23.280;2024-01-11T10:42:52;22.00;;;12.90;;
6193;SDS011;3130;41.564;23.280;2024-01-11T10:45:20;17.70;;;11.70;;
6193;SDS011;3130;41.564;23.280;2024-01-11T10:47:50;15.63;;;11.73;;
6193;SDS011;3130;41.564;23.280;2024-01-11T10:50:19;21.60;;;13.40;;
6193;SDS011;3130;41.564;23.280;2024-01-11T10:52:56;16.80;;;12.60;;
6193;SDS011;3130;41.564;23.280;2024-01-11T10:55:30;19.03;;;14.10;;
6193;SDS011;3130;41.564;23.280;2024-01-11T10:58:01;21.00;;;13.40;;
6193;SDS011;3130;41.564;23.280;2024-01-11T11:00:29;21.57;;;12.47;;
6193;SDS011;3130;41.564;23.280;2024-01-11T11:02:57;21.50;;;12.03;;
6193;SDS011;3130;41.564;23.280;2024-01-11T11:05:25;18.40;;;12.40;;
6193;SDS011;3130;41.564;23.280;2024-01-11T11:07:55;19.23;;;11.60;;
6193;SDS011;3130;41.564;23.280;2024-01-11T11:10:23;19.07;;;12.23;;
6193;SDS011;3130;41.564;23.280;2024-01-11T11:12:52;17.07;;;11.57;;
6193;SDS011;3130;41.564;23.280;2024-01-11T11:15:24;13.90;;;10.73;;
6193;SDS011;3130;41.564;23.280;2024-01-11T11:17:54;15.87;;;10.60;;
6193;SDS011;3130;41.564;23.280;2024-01-11T11:20:22;16.17;;;11.30;;
6193;SDS011;3130;41.564;23.280;2024-01-11T11:23:02;21.47;;;12.30;;
6193;SDS011;3130;41.564;23.280;2024-01-11T11:25:30;16.63;;;12.10;;
6193;SDS011;3130;41.564;23.280;2024-01-11T11:27:58;18.10;;;11.70;;
6193;SDS011;3130;41.564;23.280;2024-01-11T11:30:30;17.13;;;12.10;;
6193;SDS011;3130;41.564;23.280;2024-01-11T11:32:58;16.23;;;10.67;;
6193;SDS011;3130;41.564;23.280;2024-01-11T11:35:33;14.63;;;10.73;;
6193;SDS011;3130;41.564;23.280;2024-01-11T11:38:00;19.93;;;12.23;;
6193;SDS011;3130;41.564;23.280;2024-01-11T11:40:36;17.17;;;12.50;;
6193;SDS011;3130;41.564;23.280;2024-01-11T11:43:05;14.87;;;9.70;;
6193;SDS011;3130;41.564;23.280;2024-01-11T11:45:34;13.30;;;10.70;;
6193;SDS011;3130;41.564;23.280;2024-01-11T11:48:02;19.33;;;11.93;;
6193;SDS011;3130;41.564;23.280;2024-01-11T11:51:08;18.40;;;10.10;;
6193;SDS011;3130;41.564;23.280;2024-01-11T11:53:37;11.87;;;9.47;;
6193;SDS011;3130;41.564;23.280;2024-01-11T11:56:05;21.83;;;13.43;;
6193;SDS011;3130;41.564;23.280;2024-01-11T11:58:34;27.47;;;18.30;;
6193;SDS011;3130;41.564;23.280;2024-01-11T12:01:03;19.23;;;12.33;;
6193;SDS011;3130;41.564;23.280;2024-01-11T12:03:31;17.53;;;12.13;;
6193;SDS011;3130;41.564;23.280;2024-01-11T12:06:01;15.83;;;10.20;;
6193;SDS011;3130;41.564;23.280;2024-01-11T12:08:28;12.97;;;8.83;;
6193;SDS011;3130;41.564;23.280;2024-01-11T12:10:56;15.73;;;10.63;;
6193;SDS011;3130;41.564;23.280;2024-01-11T12:13:23;17.30;;;11.37;;
6193;SDS011;3130;41.564;23.280;2024-01-11T12:15:52;18.13;;;10.63;;
6193;SDS011;3130;41.564;23.280;2024-01-11T12:18:22;16.93;;;10.80;;
6193;SDS011;3130;41.564;23.280;2024-01-11T12:20:49;13.93;;;10.13;;
6193;SDS011;3130;41.564;23.280;2024-01-11T12:23:19;12.97;;;9.50;;
6193;SDS011;3130;41.564;23.280;2024-01-11T12:25:46;16.30;;;10.53;;
6193;SDS011;3130;41.564;23.280;2024-01-11T12:28:14;15.07;;;10.07;;
6193;SDS011;3130;41.564;23.280;2024-01-11T12:30:42;13.83;;;10.20;;
6193;SDS011;3130;41.564;23.280;2024-01-11T12:33:09;11.90;;;9.53;;
6193;SDS011;3130;41.564;23.280;2024-01-11T12:35:38;21.23;;;12.20;;
6193;SDS011;3130;41.564;23.280;2024-01-11T12:38:05;18.10;;;10.30;;
6193;SDS011;3130;41.564;23.280;2024-01-11T12:40:35;15.60;;;10.13;;
6193;SDS011;3130;41.564;23.280;2024-01-11T12:43:03;11.63;;;9.07;;
6193;SDS011;3130;41.564;23.280;2024-01-11T12:45:31;13.63;;;8.57;;
6193;SDS011;3130;41.564;23.280;2024-01-11T12:47:59;17.73;;;12.03;;
6193;SDS011;3130;41.564;23.280;2024-01-11T12:50:26;13.80;;;8.93;;
6193;SDS011;3130;41.564;23.280;2024-01-11T12:53:08;14.90;;;8.33;;
6193;SDS011;3130;41.564;23.280;2024-01-11T12:55:37;12.57;;;8.40;;
6193;SDS011;3130;41.564;23.280;2024-01-11T12:58:05;12.20;;;8.90;;
6193;SDS011;3130;41.564;23.280;2024-01-11T13:00:34;16.80;;;10.77;;
6193;SDS011;3130;41.564;23.280;2024-01-11T13:03:02;15.67;;;10.00;;
6193;SDS011;3130;41.564;23.280;2024-01-11T13:05:30;12.23;;;7.60;;
6193;SDS011;3130;41.564;23.280;2024-01-11T13:08:00;11.90;;;7.57;;
6193;SDS011;3130;41.564;23.280;2024-01-11T13:10:32;15.97;;;8.37;;
6193;SDS011;3130;41.564;23.280;2024-01-11T13:13:01;19.63;;;9.83;;
6193;SDS011;3130;41.564;23.280;2024-01-11T13:15:28;12.80;;;8.57;;
6193;SDS011;3130;41.564;23.280;2024-01-11T13:17:57;16.50;;;11.83;;
6193;SDS011;3130;41.564;23.280;2024-01-11T13:20:24;10.67;;;7.27;;
6193;SDS011;3130;41.564;23.280;2024-01-11T13:22:53;11.70;;;8.23;;
6193;SDS011;3130;41.564;23.280;2024-01-11T13:25:40;15.57;;;7.90;;
6193;SDS011;3130;41.564;23.280;2024-01-11T13:28:07;14.87;;;8.73;;
6193;SDS011;3130;41.564;23.280;2024-01-11T13:30:36;18.07;;;10.17;;
6193;SDS011;3130;41.564;23.280;2024-01-11T13:33:04;14.73;;;9.57;;
6193;SDS011;3130;41.564;23.280;2024-01-11T13:35:33;13.90;;;10.10;;
6193;SDS011;3130;41.564;23.280;2024-01-11T13:38:00;17.00;;;10.27;;
6193;SDS011;3130;41.564;23.280;2024-01-11T13:40:28;13.63;;;10.23;;
6193;SDS011;3130;41.564;23.280;2024-01-11T13:42:56;17.07;;;10.07;;
6193;SDS011;3130;41.564;23.280;2024-01-11T13:45:24;16.33;;;11.20;;
6193;SDS011;3130;41.564;23.280;2024-01-11T13:47:52;17.97;;;11.77;;
6193;SDS011;3130;41.564;23.280;2024-01-11T13:50:19;19.07;;;11.10;;
6193;SDS011;3130;41.564;23.280;2024-01-11T13:52:47;18.53;;;11.27;;
6193;SDS011;3130;41.564;23.280;2024-01-11T13:55:15;20.17;;;13.13;;
6193;SDS011;3130;41.564;23.280;2024-01-11T13:57:43;18.70;;;12.93;;
6193;SDS011;3130;41.564;23.280;2024-01-11T14:00:13;21.47;;;14.67;;
6193;SDS011;3130;41.564;23.280;2024-01-11T14:02:43;22.50;;;12.80;;
6193;SDS011;3130;41.564;23.280;2024-01-11T14:05:11;16.30;;;10.20;;
6193;SDS011;3130;41.564;23.280;2024-01-11T14:07:40;15.83;;;9.70;;
6193;SDS011;3130;41.564;23.280;2024-01-11T14:10:09;12.30;;;8.07;;
6193;SDS011;3130;41.564;23.280;2024-01-11T14:12:38;10.57;;;7.93;;
6193;SDS011;3130;41.564;23.280;2024-01-11T14:15:06;15.27;;;10.77;;
6193;SDS011;3130;41.564;23.280;2024-01-11T14:17:38;11.70;;;8.97;;
6193;SDS011;3130;41.564;23.280;2024-01-11T14:20:06;14.73;;;9.90;;
6193;SDS011;3130;41.564;23.280;2024-01-11T14:22:38;18.63;;;9.27;;
6193;SDS011;3130;41.564;23.280;2024-01-11T14:25:05;19.63;;;11.27;;
6193;SDS011;3130;41.564;23.280;2024-01-11T14:27:33;17.00;;;10.13;;
6193;SDS011;3130;41.564;23.280;2024-01-11T14:30:00;12.50;;;8.60;;
6193;SDS011;3130;41.564;23.280;2024-01-11T14:32:30;14.30;;;9.80;;
6193;SDS011;3130;41.564;23.280;2024-01-11T14:35:00;18.23;;;9.43;;
6193;SDS011;3130;41.564;23.280;2024-01-11T14:37:30;19.80;;;9.53;;
6193;SDS011;3130;41.564;23.280;2024-01-11T14:39:57;20.40;;;11.13;;
6193;SDS011;3130;41.564;23.280;2024-01-11T14:42:25;22.83;;;12.53;;
6193;SDS011;3130;41.564;23.280;2024-01-11T14:44:52;20.77;;;11.60;;
6193;SDS011;3130;41.564;23.280;2024-01-11T14:47:20;16.87;;;10.37;;